Time;durP1;ratioP1;P1;durP2;ratioP2;P2;SDS_P1;SDS_P2;PMS_P1;PMS_P2;Temp;Humidity;BMP_temperature;BMP_pressure;BME280_temperature;BME280_humidity;BME280_pressure;Samples;Min_cycle;Max_cycle;Signal;HPM_P1;HPM_P2
2023/01/16 00:02:04;;;;;;;5.60;4.10;;;;;;;-0.18;75.25;100357.66;109339;1253;66189;-70
2023/01/16 00:04:37;;;;;;;7.70;4.20;;;;;;;-0.18;75.39;100359.56;109297;1253;58436;-71
2023/01/16 00:07:05;;;;;;;7.70;4.70;;;;;;;-0.17;75.51;100356.40;109404;1253;65983;-71
2023/01/16 00:09:32;;;;;;;8.40;4.70;;;;;;;-0.17;75.67;100357.08;109404;1254;58233;-71
2023/01/16 00:11:59;;;;;;;8.00;4.40;;;;;;;-0.16;75.80;100358.45;109468;1253;58208;-71
2023/01/16 00:14:29;;;;;;;10.30;4.60;;;;;;;-0.15;75.88;100357.73;109357;1256;66082;-71
2023/01/16 00:16:56;;;;;;;7.70;4.50;;;;;;;-0.15;76.01;100353.04;109496;1253;60749;-71
2023/01/16 00:19:23;;;;;;;6.40;4.80;;;;;;;-0.14;76.08;100350.91;109438;1255;64925;-71
2023/01/16 00:21:50;;;;;;;8.70;4.60;;;;;;;-0.13;76.20;100350.54;109407;1253;58563;-71
2023/01/16 00:24:17;;;;;;;7.30;4.60;;;;;;;-0.14;76.32;100346.58;109423;1252;58199;-71
2023/01/16 00:26:44;;;;;;;7.30;4.50;;;;;;;-0.14;76.41;100347.46;109354;1255;67449;-70
2023/01/16 00:29:11;;;;;;;9.80;4.50;;;;;;;-0.14;76.61;100347.30;109212;1253;60724;-71
2023/01/16 00:31:38;;;;;;;6.90;4.50;;;;;;;-0.15;76.85;100347.17;109463;1253;66139;-70
2023/01/16 00:34:05;;;;;;;8.60;4.90;;;;;;;-0.17;77.07;100343.42;109399;1252;58182;-70
2023/01/16 00:36:33;;;;;;;11.40;4.90;;;;;;;-0.17;77.27;100338.94;109457;1253;58290;-70
2023/01/16 00:39:00;;;;;;;9.50;5.30;;;;;;;-0.17;77.43;100340.48;109477;1253;67419;-70
2023/01/16 00:41:27;;;;;;;9.60;6.10;;;;;;;-0.17;77.63;100339.09;109480;1253;59614;-70
2023/01/16 00:43:56;;;;;;;8.60;6.00;;;;;;;-0.16;77.74;100336.83;109436;1253;66273;-70
2023/01/16 00:46:23;;;;;;;8.90;5.50;;;;;;;-0.16;77.90;100333.85;109430;1252;58203;-70
2023/01/16 00:48:50;;;;;;;11.80;6.00;;;;;;;-0.15;78.02;100327.95;109430;1255;58244;-71
2023/01/16 00:51:17;;;;;;;9.40;5.40;;;;;;;-0.15;78.11;100326.39;109380;1253;66958;-71
2023/01/16 00:58:18;;;;;;;8.50;5.60;;;;;;;-0.15;78.50;100325.34;109356;1253;65182;-71
2023/01/16 01:00:45;;;;;;;10.60;6.50;;;;;;;-0.16;78.72;100325.04;109258;1253;58023;-71
2023/01/16 01:03:12;;;;;;;11.70;6.60;;;;;;;-0.16;78.83;100323.98;109393;1253;58211;-71
2023/01/16 01:05:39;;;;;;;12.30;6.70;;;;;;;-0.15;78.92;100320.52;109350;1255;67166;-71
2023/01/16 01:08:06;;;;;;;12.60;7.10;;;;;;;-0.14;78.95;100315.10;109403;1253;59444;-72
2023/01/16 01:10:35;;;;;;;11.40;6.50;;;;;;;-0.12;79.01;100316.23;109236;1253;203982;-72
2023/01/16 01:13:02;;;;;;;10.80;6.90;;;;;;;-0.12;79.03;100316.56;109210;1253;58185;-71
2023/01/16 01:15:29;;;;;;;11.70;7.00;;;;;;;-0.11;79.17;100313.42;109424;1253;58141;-71
2023/01/16 01:17:57;;;;;;;11.80;6.90;;;;;;;-0.11;79.25;100310.80;109433;1253;66221;-71
2023/01/16 01:20:24;;;;;;;9.10;7.10;;;;;;;-0.09;79.21;100305.91;109382;1253;60828;-71
2023/01/16 01:22:51;;;;;;;8.70;6.50;;;;;;;-0.08;79.22;100306.94;109389;1253;65208;-71
2023/01/16 01:25:18;;;;;;;10.80;6.60;;;;;;;-0.08;79.29;100304.85;109248;1253;58184;-71
2023/01/16 01:27:45;;;;;;;11.30;7.00;;;;;;;-0.07;79.28;100303.77;109182;1253;58041;-71
2023/01/16 01:30:12;;;;;;;11.50;6.50;;;;;;;-0.07;79.39;100297.17;109386;1253;67220;-70
2023/01/16 01:32:39;;;;;;;9.50;6.80;;;;;;;-0.06;79.37;100292.29;109433;1253;60724;-70
2023/01/16 01:35:07;;;;;;;11.50;7.50;;;;;;;-0.04;79.36;100289.61;109408;1254;65837;-70
2023/01/16 01:37:34;;;;;;;10.90;6.70;;;;;;;-0.03;79.42;100283.33;109377;1253;58185;-71
2023/01/16 01:40:04;;;;;;;10.70;6.50;;;;;;;-0.02;79.44;100281.39;109187;1253;58203;-70
2023/01/16 01:42:42;;;;;;;10.50;6.90;;;;;;;-0.03;79.50;100273.81;109289;1253;67277;-70
2023/01/16 01:45:17;;;;;;;9.90;6.70;;;;;;;-0.04;79.54;100272.81;109407;1253;60676;-71
2023/01/16 01:47:49;;;;;;;10.50;6.90;;;;;;;-0.04;79.53;100272.52;109285;1253;66196;-70
2023/01/16 01:50:23;;;;;;;10.00;6.70;;;;;;;-0.05;79.61;100268.54;109400;1253;58180;-70
2023/01/16 01:52:50;;;;;;;11.00;7.40;;;;;;;-0.04;79.60;100267.83;109192;1254;58045;-70
2023/01/16 01:55:17;;;;;;;10.60;7.10;;;;;;;-0.03;79.70;100266.40;109162;1254;67231;-70
2023/01/16 01:57:46;;;;;;;11.10;7.40;;;;;;;-0.01;79.67;100266.30;109214;1254;60487;-70
2023/01/16 02:00:18;;;;;;;9.10;6.30;;;;;;;-0.01;79.68;100261.96;109178;1254;65103;-71
2023/01/16 02:02:52;;;;;;;9.60;6.70;;;;;;;-0.00;79.68;100262.15;109357;1253;58503;-71
2023/01/16 02:05:23;;;;;;;8.30;6.60;;;;;;;0.00;79.68;100261.79;109375;1254;58100;-71
2023/01/16 02:07:50;;;;;;;9.90;6.70;;;;;;;0.01;79.71;100261.95;109193;1253;67345;-70
2023/01/16 02:10:21;;;;;;;11.20;6.40;;;;;;;0.01;79.80;100259.85;109420;1254;59210;-70
2023/01/16 02:12:48;;;;;;;8.70;5.90;;;;;;;0.03;79.80;100259.10;109189;1254;65377;-71
2023/01/16 02:15:15;;;;;;;8.80;6.00;;;;;;;0.03;79.85;100256.16;109203;1254;58120;-70
2023/01/16 02:20:31;;;;;;;8.50;5.70;;;;;;;0.04;79.77;100248.67;109367;1254;66898;-70
2023/01/16 02:23:07;;;;;;;9.20;6.60;;;;;;;0.05;79.82;100243.27;109135;1254;59436;-70
2023/01/16 02:26:05;;;;;;;8.00;6.20;;;;;;;0.05;79.87;100243.78;109353;1259;65036;-70
2023/01/16 02:28:51;;;;;;;8.40;7.00;;;;;;;0.05;79.84;100238.04;109359;1255;58130;-71
2023/01/16 02:31:36;;;;;;;10.70;7.90;;;;;;;0.06;79.84;100235.24;109212;1254;58062;-70
2023/01/16 02:34:06;;;;;;;15.00;9.30;;;;;;;0.07;79.89;100233.48;109218;1254;66348;-71
2023/01/16 02:36:36;;;;;;;10.10;7.90;;;;;;;0.08;79.82;100229.13;109380;1254;60350;-71
2023/01/16 02:39:51;;;;;;;9.40;7.40;;;;;;;0.09;79.80;100225.79;109360;1254;65227;-71
2023/01/16 02:42:20;;;;;;;;;;;;;;;0.11;79.81;100223.49;108971;1259;58149;-71
2023/01/16 02:44:54;;;;;;;7.60;5.50;;;;;;;0.11;79.75;100224.17;109118;1253;58237;-71
2023/01/16 02:47:31;;;;;;;8.50;5.10;;;;;;;0.10;79.74;100220.56;109388;1254;66291;-71
2023/01/16 02:50:04;;;;;;;7.10;5.00;;;;;;;0.09;79.60;100220.41;109253;1254;59515;-70
2023/01/16 02:52:45;;;;;;;5.30;4.20;;;;;;;0.08;79.61;100219.75;109177;1258;65949;-70
2023/01/16 02:55:27;;;;;;;5.50;4.50;;;;;;;0.08;79.55;100218.90;109121;1254;58081;-70
2023/01/16 02:57:57;;;;;;;5.80;4.80;;;;;;;0.08;79.50;100211.80;109337;1254;58209;-71
2023/01/16 03:00:24;;;;;;;6.10;4.70;;;;;;;0.08;79.42;100207.13;109188;1254;67130;-71
2023/01/16 03:02:51;;;;;;;6.40;4.60;;;;;;;0.08;79.34;100200.03;109194;1254;59415;-71
2023/01/16 03:05:18;;;;;;;7.50;6.10;;;;;;;0.07;79.29;100196.08;109296;1254;65102;-70
2023/01/16 03:07:50;;;;;;;7.10;5.40;;;;;;;0.07;79.13;100199.55;109117;1256;58162;-70
2023/01/16 03:10:29;;;;;;;7.20;5.80;;;;;;;0.06;79.11;100199.74;109180;1254;58286;-71
2023/01/16 03:12:59;;;;;;;9.20;6.40;;;;;;;0.07;79.12;100192.27;109197;1254;66294;-71
2023/01/16 03:16:03;;;;;;;8.10;6.80;;;;;;;0.08;79.05;100188.92;109334;1254;60499;-70
2023/01/16 03:18:39;;;;;;;7.00;6.20;;;;;;;0.10;78.97;100185.05;109308;1254;66142;-70
2023/01/16 03:21:41;;;;;;;8.10;6.30;;;;;;;0.11;78.94;100180.35;109152;1254;58133;-71
2023/01/16 03:24:17;;;;;;;5.80;5.20;;;;;;;0.11;78.95;100178.96;109205;1259;58135;-71
2023/01/16 03:26:48;;;;;;;5.50;4.90;;;;;;;0.12;78.95;100178.07;109309;1254;67129;-71
2023/01/16 03:29:18;;;;;;;5.40;4.00;;;;;;;0.13;78.93;100177.33;109230;1254;59498;-71
2023/01/16 03:32:00;;;;;;;3.50;2.70;;;;;;;0.14;78.94;100173.65;109303;1254;64823;-71
2023/01/16 03:34:31;;;;;;;3.70;2.50;;;;;;;0.15;78.92;100169.77;109099;1254;58165;-71
2023/01/16 03:37:16;;;;;;;3.60;2.50;;;;;;;0.17;78.93;100169.73;109250;1254;58058;-72
2023/01/16 03:39:46;;;;;;;3.60;2.60;;;;;;;0.18;78.95;100166.39;109311;1254;65864;-71
2023/01/16 03:42:16;;;;;;;3.10;2.60;;;;;;;0.19;78.95;100165.32;109134;1254;60896;-71
2023/01/16 03:44:47;;;;;;;5.60;3.40;;;;;;;0.20;78.91;100163.38;109185;1254;66235;-71
2023/01/16 03:47:18;;;;;;;7.00;4.00;;;;;;;0.21;78.87;100158.66;109317;1254;58127;-71
2023/01/16 03:49:47;;;;;;;13.30;6.70;;;;;;;0.22;78.89;100160.52;109146;1254;58170;-71
2023/01/16 03:52:15;;;;;;;23.20;10.20;;;;;;;0.23;78.92;100159.60;109114;1258;67302;-71
2023/01/16 03:55:20;;;;;;;36.10;13.70;;;;;;;0.25;78.99;100156.39;109155;1255;60482;-72
2023/01/16 03:57:53;;;;;;;38.70;14.30;;;;;;;0.27;79.01;100148.50;109070;1255;65073;-72
2023/01/16 04:00:20;;;;;;;43.00;16.80;;;;;;;0.30;79.10;100140.80;109125;1256;58161;-72
2023/01/16 04:02:53;;;;;;;30.00;12.50;;;;;;;0.32;79.16;100134.49;109160;1256;58187;-72
2023/01/16 04:05:27;;;;;;;17.80;7.90;;;;;;;0.34;79.20;100137.33;109145;1256;66177;-72
2023/01/16 04:08:01;;;;;;;;;;;;;;;0.36;79.13;100137.60;109146;1255;60093;-72
2023/01/16 04:10:31;;;;;;;;;;;;;;;0.35;79.14;100129.52;109212;1255;66051;-72
2023/01/16 04:13:07;;;;;;;7.70;4.50;;;;;;;0.33;79.09;100124.76;109160;1256;58095;-72
2023/01/16 04:15:35;;;;;;;9.50;4.70;;;;;;;0.31;79.09;100126.05;109109;1262;58063;-73
2023/01/16 04:18:03;;;;;;;13.70;6.00;;;;;;;0.28;79.06;100128.73;109145;1255;67170;-72
2023/01/16 04:20:30;;;;;;;13.70;6.40;;;;;;;0.26;79.08;100128.31;109090;1254;60412;-72
2023/01/16 04:22:57;;;;;;;13.40;7.20;;;;;;;0.23;79.07;100136.39;109204;1256;64176;-72
2023/01/16 04:25:24;;;;;;;13.10;7.70;;;;;;;0.21;79.12;100137.50;109117;1256;58199;-72
2023/01/16 04:27:51;;;;;;;18.80;8.30;;;;;;;0.21;79.27;100131.64;109213;1256;58112;-72
2023/01/16 04:30:18;;;;;;;16.60;8.20;;;;;;;0.21;79.30;100125.59;109143;1255;67311;-72
2023/01/16 04:32:45;;;;;;;18.40;9.20;;;;;;;0.21;79.37;100118.48;109238;1255;59529;-72
2023/01/16 04:35:12;;;;;;;18.10;9.80;;;;;;;0.21;79.42;100112.42;109239;1254;65062;-71
2023/01/16 04:37:39;;;;;;;21.90;10.40;;;;;;;0.20;79.41;100111.06;109225;1255;58170;-71
2023/01/16 04:40:08;;;;;;;29.10;13.80;;;;;;;0.20;79.52;100105.90;109268;1255;58046;-71
2023/01/16 04:42:35;;;;;;;28.90;13.20;;;;;;;0.19;79.62;100101.24;109151;1256;66134;-71
2023/01/16 04:45:03;;;;;;;37.80;16.30;;;;;;;0.18;79.69;100099.88;109248;1255;59270;-73
2023/01/16 04:47:30;;;;;;;33.90;15.70;;;;;;;0.18;79.75;100106.48;109248;1255;65923;-72
2023/01/16 04:49:57;;;;;;;37.50;15.90;;;;;;;0.17;79.89;100105.29;109200;1256;58128;-72
2023/01/16 04:52:24;;;;;;;45.30;17.20;;;;;;;0.17;80.05;100110.48;109104;1256;58135;-72
2023/01/16 04:54:51;;;;;;;37.90;17.00;;;;;;;0.17;80.10;100112.56;109197;1256;67014;-70
2023/01/16 04:57:18;;;;;;;46.30;17.80;;;;;;;0.18;80.15;100109.59;109232;1256;60109;-72
2023/01/16 04:59:45;;;;;;;45.10;17.70;;;;;;;0.18;80.31;100109.09;109097;1256;66079;-72
2023/01/16 05:02:13;;;;;;;46.90;18.50;;;;;;;0.18;80.37;100110.62;109180;1256;58176;-72
2023/01/16 05:04:41;;;;;;;49.30;18.40;;;;;;;0.18;80.46;100109.23;109172;1256;58063;-72
2023/01/16 05:07:08;;;;;;;40.10;16.80;;;;;;;0.18;80.55;100107.15;109192;1256;66288;-70
2023/01/16 05:09:37;;;;;;;40.10;17.10;;;;;;;0.18;80.68;100104.73;109229;1256;60770;-69
2023/01/16 05:12:06;;;;;;;37.60;17.00;;;;;;;0.17;80.74;100104.96;109115;1256;65947;-70
2023/01/16 05:14:33;;;;;;;38.70;17.60;;;;;;;0.17;80.73;100106.17;109185;1256;58216;-70
2023/01/16 05:17:00;;;;;;;38.70;17.50;;;;;;;0.17;80.92;100107.38;109114;1256;58081;-71
2023/01/16 05:19:27;;;;;;;40.20;18.40;;;;;;;0.17;81.00;100104.44;109207;1255;67220;-70
2023/01/16 05:21:54;;;;;;;35.50;17.30;;;;;;;0.18;81.12;100106.81;109225;1255;60352;-70
2023/01/16 05:24:22;;;;;;;35.00;15.80;;;;;;;0.20;81.19;100109.69;109086;1256;66097;-71
2023/01/16 05:26:49;;;;;;;25.50;14.00;;;;;;;0.21;81.25;100112.61;109169;1256;58180;-70
2023/01/16 05:29:16;;;;;;;22.10;13.00;;;;;;;0.21;81.25;100114.33;109201;1256;58270;-70
2023/01/16 05:31:43;;;;;;;22.60;12.70;;;;;;;0.22;81.46;100113.09;109174;1259;67157;-71
2023/01/16 05:34:12;;;;;;;20.50;11.90;;;;;;;0.22;81.55;100110.65;109219;1255;60097;-71
2023/01/16 05:36:39;;;;;;;19.20;12.60;;;;;;;0.23;81.57;100107.99;109155;1256;66498;-70
2023/01/16 05:39:07;;;;;;;21.50;12.30;;;;;;;0.25;81.58;100108.64;109192;1256;58210;-70
2023/01/16 05:41:33;;;;;;;17.00;11.90;;;;;;;0.26;81.67;100112.73;109214;1255;58082;-71
2023/01/16 05:44:01;;;;;;;17.40;10.30;;;;;;;0.27;81.71;100110.06;109087;1256;66142;-71
2023/01/16 05:46:28;;;;;;;20.50;11.00;;;;;;;0.28;81.74;100110.02;109228;1256;60333;-71
2023/01/16 05:48:55;;;;;;;15.80;10.00;;;;;;;0.30;81.79;100110.99;109224;1255;64903;-71
2023/01/16 05:51:24;;;;;;;18.90;10.50;;;;;;;0.32;81.87;100110.22;109139;1257;58164;-71
2023/01/16 05:53:54;;;;;;;15.00;9.30;;;;;;;0.34;81.92;100112.40;109140;1256;58074;-70
2023/01/16 05:56:25;;;;;;;14.50;10.00;;;;;;;0.35;81.92;100106.27;109080;1256;66193;-71
2023/01/16 05:58:57;;;;;;;14.10;9.60;;;;;;;0.36;81.90;100101.23;109111;1256;60056;-71
2023/01/16 06:01:28;;;;;;;14.00;9.60;;;;;;;0.36;82.01;100105.02;109075;1256;66219;-71
2023/01/16 06:03:59;;;;;;;10.00;8.00;;;;;;;0.37;82.03;100106.17;109087;1256;58108;-71
2023/01/16 06:06:28;;;;;;;11.60;8.60;;;;;;;0.38;82.01;100105.80;109140;1256;58144;-71
2023/01/16 06:08:58;;;;;;;10.20;8.20;;;;;;;0.39;82.11;100103.70;109121;1260;67499;-71
2023/01/16 06:11:29;;;;;;;10.70;7.90;;;;;;;0.40;82.16;100102.95;109097;1256;58224;-72
2023/01/16 06:14:03;;;;;;;11.50;7.90;;;;;;;0.41;82.21;100102.23;109079;1256;65298;-71
2023/01/16 06:16:32;;;;;;;10.70;7.70;;;;;;;0.43;82.23;100099.20;109101;1256;58100;-72
2023/01/16 06:19:03;;;;;;;10.80;7.70;;;;;;;0.45;82.28;100101.19;109100;1256;58146;-73
2023/01/16 06:21:33;;;;;;;11.40;9.00;;;;;;;0.46;82.33;100098.35;109154;1256;66554;-73
2023/01/16 06:24:03;;;;;;;10.30;8.50;;;;;;;0.48;82.28;100102.27;109095;1256;60795;-72
2023/01/16 06:26:32;;;;;;;10.20;8.10;;;;;;;0.49;82.32;100106.39;109097;1256;65982;-72
2023/01/16 06:29:03;;;;;;;11.00;8.00;;;;;;;0.51;82.43;100100.79;109069;1256;58171;-73
2023/01/16 06:31:32;;;;;;;12.10;8.40;;;;;;;0.52;82.33;100103.32;109175;1256;58065;-72
2023/01/16 06:34:01;;;;;;;14.60;8.40;;;;;;;0.54;82.32;100099.06;109097;1256;66046;-72
2023/01/16 06:36:31;;;;;;;13.00;8.90;;;;;;;0.56;82.37;100094.48;109151;1259;59495;-72
2023/01/16 06:39:01;;;;;;;10.00;8.40;;;;;;;0.58;82.36;100091.45;109037;1256;64825;-72
2023/01/16 06:41:30;;;;;;;12.70;8.90;;;;;;;0.61;82.43;100092.91;109060;1256;58165;-72
2023/01/16 06:44:01;;;;;;;12.30;8.90;;;;;;;0.63;82.40;100094.91;109067;1256;58020;-70
2023/01/16 06:46:31;;;;;;;13.20;9.90;;;;;;;0.64;82.45;100098.48;109172;1256;68298;-73
2023/01/16 06:49:02;;;;;;;12.50;9.50;;;;;;;0.66;82.45;100096.15;109058;1256;60354;-72
2023/01/16 06:59:03;;;;;;;12.20;9.50;;;;;;;0.72;82.40;100097.61;102915;1288;600251;-73
2023/01/16 07:01:30;;;;;;;12.90;10.00;;;;;;;0.70;82.43;100095.45;105031;1266;59138;-70
2023/01/16 07:03:57;;;;;;;14.90;11.10;;;;;;;0.71;82.51;100098.73;104798;1263;59142;-73
2023/01/16 07:06:24;;;;;;;16.80;11.40;;;;;;;0.71;82.46;100100.61;104952;1266;65045;-74
2023/01/16 07:08:52;;;;;;;14.00;11.50;;;;;;;0.71;82.53;100104.24;105225;1265;60773;-72
2023/01/16 07:11:19;;;;;;;16.40;11.60;;;;;;;0.71;82.53;100105.98;105590;1257;65442;-71
2023/01/16 07:13:46;;;;;;;14.40;11.60;;;;;;;0.71;82.60;100108.91;105467;1259;200445;-71
2023/01/16 07:24:37;;;;;;;18.30;13.10;;;;;;;0.73;82.74;100110.89;105691;1257;66522;-70
2023/01/16 07:27:04;;;;;;;19.40;13.70;;;;;;;0.74;82.80;100105.33;105661;1260;59721;-70
2023/01/16 07:29:32;;;;;;;21.80;15.40;;;;;;;0.75;82.79;100107.89;105847;1264;59583;-71
2023/01/16 07:32:00;;;;;;;22.50;16.10;;;;;;;0.75;82.89;100106.81;105657;1259;66922;-71
2023/01/16 07:34:27;;;;;;;20.40;15.70;;;;;;;0.76;82.90;100102.64;105831;1254;59836;-70
2023/01/16 07:36:54;;;;;;;20.80;16.70;;;;;;;0.77;82.89;100102.95;105642;1256;65207;-71
2023/01/16 07:39:21;;;;;;;18.10;14.20;;;;;;;0.77;82.94;100097.04;105556;1255;60282;-70
2023/01/16 07:41:50;;;;;;;22.30;17.30;;;;;;;0.78;82.99;100097.20;105585;1257;59715;-72
2023/01/16 07:44:24;;;;;;;23.30;16.80;;;;;;;0.78;83.03;100093.55;105488;1260;65392;-71
2023/01/16 07:46:51;;;;;;;22.70;16.90;;;;;;;0.80;83.04;100095.36;105584;1254;60763;-71
2023/01/16 07:49:19;;;;;;;22.50;16.40;;;;;;;0.81;83.00;100100.52;105623;1254;66523;-71
2023/01/16 07:51:47;;;;;;;20.90;15.30;;;;;;;0.81;83.12;100096.67;105649;1258;59737;-71
2023/01/16 07:54:14;;;;;;;21.20;16.50;;;;;;;0.82;83.16;100099.79;105572;1254;59710;-71
2023/01/16 07:56:41;;;;;;;22.10;15.20;;;;;;;0.82;83.17;100095.08;105681;1254;66931;-71
2023/01/16 07:59:08;;;;;;;23.20;17.40;;;;;;;0.82;83.21;100093.00;105570;1261;60479;-71
2023/01/16 08:01:35;;;;;;;23.80;17.00;;;;;;;0.83;83.29;100092.27;105616;1254;66944;-72
2023/01/16 08:04:03;;;;;;;23.40;16.80;;;;;;;0.84;83.30;100100.52;105610;1258;59838;-72
2023/01/16 08:06:30;;;;;;;22.00;16.40;;;;;;;0.85;83.32;100099.29;105523;1255;59599;-70
2023/01/16 08:08:57;;;;;;;26.30;18.30;;;;;;;0.86;83.38;100098.20;105375;1260;65783;-70
2023/01/16 08:11:37;;;;;;;25.90;18.10;;;;;;;0.88;83.40;100098.33;105587;1260;59948;-70
2023/01/16 08:14:06;;;;;;;25.80;20.40;;;;;;;0.89;83.42;100094.63;105741;1254;66371;-70
2023/01/16 08:16:34;;;;;;;27.00;19.10;;;;;;;0.89;83.44;100095.31;105598;1260;59765;-70
2023/01/16 08:19:00;;;;;;;22.40;16.80;;;;;;;0.90;83.45;100093.71;105525;1260;59401;-70
2023/01/16 08:21:27;;;;;;;23.40;16.00;;;;;;;0.90;83.55;100089.36;105464;1255;65760;-71
2023/01/16 08:23:55;;;;;;;21.40;16.10;;;;;;;0.91;83.60;100083.96;105808;1259;59787;-71
2023/01/16 08:26:22;;;;;;;20.00;15.30;;;;;;;0.92;83.56;100084.98;105508;1258;66215;-69
2023/01/16 08:28:48;;;;;;;24.30;17.40;;;;;;;0.93;83.60;100082.84;105540;1254;59756;-70
2023/01/16 08:31:17;;;;;;;21.50;15.50;;;;;;;0.94;83.70;100078.43;105521;1254;59637;-71
2023/01/16 08:33:46;;;;;;;21.50;14.50;;;;;;;0.95;83.69;100073.17;105584;1258;63423;-71
2023/01/16 08:36:16;;;;;;;22.50;16.10;;;;;;;0.96;83.80;100068.80;105675;1257;60886;-72
2023/01/16 08:38:43;;;;;;;23.30;15.80;;;;;;;0.98;83.79;100065.80;105513;1265;66411;-70
2023/01/16 08:52:14;;;;;;;25.50;17.50;;;;;;;1.04;84.04;100053.38;105580;1257;66237;-70
2023/01/16 08:54:43;;;;;;;27.50;18.10;;;;;;;1.05;84.08;100048.48;105505;1255;59678;-70
2023/01/16 08:57:10;;;;;;;31.60;21.00;;;;;;;1.06;84.14;100044.59;105011;1258;59544;-69
2023/01/16 08:59:37;;;;;;;28.40;19.60;;;;;;;1.08;84.22;100038.64;106083;1259;68593;-69
2023/01/16 09:02:04;;;;;;;25.00;18.50;;;;;;;1.10;84.25;100036.45;105599;1259;59864;-71
2023/01/16 09:05:06;;;;;;;27.50;19.60;;;;;;;1.11;84.22;100035.02;106162;1260;66774;-71
2023/01/16 09:07:44;;;;;;;32.20;21.30;;;;;;;1.12;84.25;100029.73;107023;1254;59717;-70
2023/01/16 09:10:12;;;;;;;25.40;19.00;;;;;;;1.13;84.39;100023.09;105909;1254;59660;-70
2023/01/16 09:15:26;;;;;;;24.70;18.00;;;;;;;1.17;84.46;100020.90;105428;1259;59807;-71
2023/01/16 09:17:52;;;;;;;25.40;18.60;;;;;;;1.18;84.46;100022.23;105329;1257;65518;-72
2023/01/16 09:20:19;;;;;;;27.60;20.60;;;;;;;1.20;84.50;100022.30;105346;1253;59627;-69
2023/01/16 09:22:47;;;;;;;25.50;18.20;;;;;;;1.21;84.47;100019.48;105439;1259;60074;-70
2023/01/16 09:25:13;;;;;;;33.10;18.70;;;;;;;1.22;84.52;100015.45;105582;1257;67002;-72
2023/01/16 09:27:40;;;;;;;35.80;21.90;;;;;;;1.24;84.57;100012.94;105497;1255;60553;-72
2023/01/16 09:30:08;;;;;;;27.70;18.10;;;;;;;1.24;84.54;100012.58;106264;1253;66535;-71
2023/01/16 09:32:35;;;;;;;24.80;16.00;;;;;;;1.25;84.63;100008.89;105426;1254;59640;-70
2023/01/16 09:35:03;;;;;;;19.40;15.20;;;;;;;1.26;84.65;100008.49;105534;1258;59622;-70
2023/01/16 09:37:30;;;;;;;18.80;13.90;;;;;;;1.28;84.71;100007.02;106145;1255;66910;-69
2023/01/16 09:39:57;;;;;;;24.60;16.40;;;;;;;1.29;84.74;100000.88;105419;1254;60006;-71
2023/01/16 09:46:29;;;;;;;20.00;13.60;;;;;;;1.35;84.79;99999.57;105001;1260;59713;-69
2023/01/16 09:49:15;;;;;;;21.70;14.80;;;;;;;1.36;84.79;100001.10;105244;1254;60982;-68
2023/01/16 09:58:34;;;;;;;19.60;14.50;;;;;;;1.37;84.83;99999.48;105415;1261;66594;-70
2023/01/16 10:00:08;;;;;;;18.50;14.80;;;;;;;1.42;84.90;99991.92;105293;1260;59826;-71
2023/01/16 10:02:36;;;;;;;18.30;14.00;;;;;;;1.44;84.91;99989.23;105418;1254;62960;-69
2023/01/16 10:05:04;;;;;;;18.80;14.40;;;;;;;1.47;84.88;99988.79;105461;1256;67775;-74
2023/01/16 10:07:51;;;;;;;16.00;13.50;;;;;;;1.48;84.97;99986.43;106072;1256;64178;-74
2023/01/16 10:10:45;;;;;;;17.70;13.80;;;;;;;1.51;84.94;99982.84;105970;1259;64560;-76
2023/01/16 10:14:15;;;;;;;20.50;14.20;;;;;;;1.54;84.98;99978.70;105992;1258;59519;-74
2023/01/16 10:17:25;;;;;;;16.00;13.00;;;;;;;1.56;85.01;99975.11;105516;1270;59775;-77
2023/01/16 10:19:55;;;;;;;18.40;13.30;;;;;;;1.58;84.97;99973.08;105323;1261;67010;-76
2023/01/16 10:22:37;;;;;;;17.30;12.80;;;;;;;1.60;84.98;99973.18;105488;1261;60831;-74
2023/01/16 10:25:17;;;;;;;16.40;13.20;;;;;;;1.62;85.00;99967.89;106023;1259;66538;-77
2023/01/16 10:28:01;;;;;;;24.60;17.00;;;;;;;1.63;85.01;99970.92;105666;1260;59689;-77
2023/01/16 10:30:36;;;;;;;25.50;16.90;;;;;;;1.65;85.08;99969.98;105416;1254;59980;-73
2023/01/16 10:33:08;;;;;;;30.70;18.60;;;;;;;1.67;85.08;99965.38;105285;1263;75155;-73
2023/01/16 10:35:42;;;;;;;26.70;17.80;;;;;;;1.68;85.07;99967.57;105423;1254;60991;-74
2023/01/16 10:38:51;;;;;;;25.90;18.00;;;;;;;1.69;85.05;99969.77;105443;1260;66410;-75
2023/01/16 10:50:38;;;;;;;19.10;14.10;;;;;;;1.75;85.14;99952.85;105430;1260;60125;-75
2023/01/16 10:53:07;;;;;;;25.90;17.20;;;;;;;1.77;85.09;99951.73;105618;1260;66592;-73
2023/01/16 10:55:46;;;;;;;29.80;18.40;;;;;;;1.78;85.08;99953.21;105423;1255;59830;-73
2023/01/16 10:58:25;;;;;;;28.20;18.10;;;;;;;1.79;85.14;99947.95;105505;1254;59538;-73
2023/01/16 11:01:04;;;;;;;23.80;17.60;;;;;;;1.81;85.14;99940.05;105516;1255;65801;-75
2023/01/16 11:03:40;;;;;;;22.60;16.00;;;;;;;1.82;85.20;99935.48;105415;1254;61144;-76
2023/01/16 11:06:15;;;;;;;21.80;14.90;;;;;;;1.84;85.17;99929.32;105439;1259;65919;-72
2023/01/16 11:08:47;;;;;;;25.90;17.50;;;;;;;1.85;85.15;99927.71;105389;1254;59700;-73
2023/01/16 11:20:32;;;;;;;18.40;13.50;;;;;;;1.89;85.13;99912.02;105187;1264;66771;-70
2023/01/16 11:23:04;;;;;;;22.10;16.30;;;;;;;1.89;85.07;99909.06;106363;1258;60521;-68
2023/01/16 11:25:31;;;;;;;18.60;14.70;;;;;;;1.90;85.11;99905.04;105967;1259;60440;-69
2023/01/16 11:28:02;;;;;;;17.60;14.00;;;;;;;1.91;85.11;99901.67;105350;1260;67888;-70
2023/01/16 11:30:31;;;;;;;19.70;14.80;;;;;;;1.92;85.10;99900.56;106831;1258;60488;-67
2023/01/16 11:32:58;;;;;;;19.00;15.60;;;;;;;1.93;85.10;99900.87;105616;1254;65620;-69
2023/01/16 11:35:32;;;;;;;17.70;14.60;;;;;;;1.95;85.17;99901.48;105636;1257;63298;-69
2023/01/16 11:37:59;;;;;;;17.10;14.90;;;;;;;1.95;85.05;99901.64;105798;1255;60421;-71
2023/01/16 11:40:26;;;;;;;17.80;13.70;;;;;;;1.95;85.08;99895.23;105588;1260;67518;-70
2023/01/16 11:46:04;;;;;;;18.00;14.50;;;;;;;1.96;85.08;99893.77;105877;1254;66614;-69
2023/01/16 11:48:59;;;;;;;18.60;13.70;;;;;;;1.97;85.07;99901.55;105645;1254;60533;-69
2023/01/16 11:51:36;;;;;;;20.60;15.70;;;;;;;1.97;85.11;99902.06;105425;1260;60432;-70
2023/01/16 11:54:10;;;;;;;23.00;16.60;;;;;;;1.97;85.13;99900.65;105785;1257;67769;-69
2023/01/16 11:56:57;;;;;;;25.50;16.50;;;;;;;1.98;85.14;99901.30;105700;1254;60762;-70
2023/01/16 11:59:46;;;;;;;22.00;16.70;;;;;;;1.99;85.20;99900.03;105701;1254;66541;-70
2023/01/16 12:02:35;;;;;;;22.60;16.40;;;;;;;1.99;85.20;99897.58;105686;1257;61251;-69
2023/01/16 12:08:22;;;;;;;27.10;17.20;;;;;;;2.02;85.28;99897.81;105714;1257;67198;-69
2023/01/16 12:11:05;;;;;;;31.10;18.80;;;;;;;2.03;85.24;99902.27;105835;1254;61297;-68
2023/01/16 12:16:44;;;;;;;25.70;18.20;;;;;;;2.05;85.30;99898.71;105476;1258;60469;-69
2023/01/16 12:19:59;;;;;;;23.50;17.40;;;;;;;2.05;85.32;99896.61;105663;1254;60422;-69
2023/01/16 12:22:48;;;;;;;27.20;20.70;;;;;;;2.06;85.32;99896.20;105614;1254;67932;-69
2023/01/16 12:25:21;;;;;;;23.40;16.70;;;;;;;2.07;85.30;99888.36;105664;1254;60939;-69
2023/01/16 12:27:51;;;;;;;18.90;14.10;;;;;;;2.07;85.40;99889.38;105544;1258;66825;-69
2023/01/16 12:30:30;;;;;;;18.10;14.40;;;;;;;2.09;85.40;99893.65;105497;1256;60402;-69
2023/01/16 12:33:00;;;;;;;19.20;13.50;;;;;;;2.09;85.50;99893.25;106321;1253;60500;-69
2023/01/16 12:35:41;;;;;;;20.00;14.50;;;;;;;2.11;85.50;99896.79;105728;1255;67381;-70
2023/01/16 12:38:34;;;;;;;21.10;15.80;;;;;;;2.12;85.50;99891.19;105700;1254;60557;-69
2023/01/16 12:44:33;;;;;;;23.80;16.30;;;;;;;2.14;85.50;99892.83;105620;1253;60472;-70
2023/01/16 12:47:49;;;;;;;22.00;15.50;;;;;;;2.14;85.51;99890.05;105586;1253;60550;-68
2023/01/16 12:50:39;;;;;;;21.60;14.40;;;;;;;2.15;85.54;99892.08;105500;1254;67554;-69
2023/01/16 12:53:17;;;;;;;22.10;15.90;;;;;;;2.17;85.57;99895.11;105549;1254;61329;-69
2023/01/16 12:56:19;;;;;;;20.90;14.60;;;;;;;2.18;85.64;99896.77;105706;1254;65459;-68